sensor_id;sensor_type;location;lat;lon;timestamp;pressure;altitude;pressure_sealevel;temperature;humidity
61357;BME280;47227;46.752;23.576;2023-01-29T00:09:51;96557.20;;;-1.06;88.71
61357;BME280;47227;46.752;23.576;2023-01-29T00:12:19;96560.50;;;-1.13;90.65
61357;BME280;47227;46.752;23.576;2023-01-29T00:14:48;96561.89;;;-1.13;90.81
61357;BME280;47227;46.752;23.576;2023-01-29T00:17:18;96562.70;;;-1.13;90.74
61357;BME280;47227;46.752;23.576;2023-01-29T00:19:46;96562.30;;;-1.09;90.94
61357;BME280;47227;46.752;23.576;2023-01-29T00:22:14;96565.30;;;-1.08;91.73
61357;BME280;47227;46.752;23.576;2023-01-29T00:24:42;96563.04;;;-1.03;91.55
61357;BME280;47227;46.752;23.576;2023-01-29T00:27:11;96564.83;;;-0.99;91.43
61357;BME280;47227;46.752;23.576;2023-01-29T00:29:41;96560.60;;;-0.97;91.45
61357;BME280;47227;46.752;23.576;2023-01-29T00:32:10;96559.90;;;-0.89;90.70
61357;BME280;47227;46.752;23.576;2023-01-29T00:34:38;96562.12;;;-0.82;90.92
61357;BME280;47227;46.752;23.576;2023-01-29T00:37:06;96565.65;;;-0.78;90.71
61357;BME280;47227;46.752;23.576;2023-01-29T00:39:35;96565.05;;;-0.70;90.17
61357;BME280;47227;46.752;23.576;2023-01-29T00:42:15;96568.14;;;-0.64;90.10
61357;BME280;47227;46.752;23.576;2023-01-29T00:44:59;96566.94;;;-0.60;90.22
61357;BME280;47227;46.752;23.576;2023-01-29T00:47:27;96567.23;;;-0.56;89.61
61357;BME280;47227;46.752;23.576;2023-01-29T00:50:01;96567.17;;;-0.58;89.60
61357;BME280;47227;46.752;23.576;2023-01-29T00:52:29;96567.09;;;-0.60;89.64
61357;BME280;47227;46.752;23.576;2023-01-29T00:54:59;96560.56;;;-0.54;89.32
61357;BME280;47227;46.752;23.576;2023-01-29T00:57:29;96564.23;;;-0.61;89.32
61357;BME280;47227;46.752;23.576;2023-01-29T00:59:58;96567.27;;;-0.67;89.12
61357;BME280;47227;46.752;23.576;2023-01-29T01:02:27;96567.84;;;-0.72;89.61
61357;BME280;47227;46.752;23.576;2023-01-29T01:05:11;96566.89;;;-0.70;89.71
61357;BME280;47227;46.752;23.576;2023-01-29T01:07:47;96570.23;;;-0.67;89.74
61357;BME280;47227;46.752;23.576;2023-01-29T01:10:18;96567.75;;;-0.63;89.55
61357;BME280;47227;46.752;23.576;2023-01-29T01:45:56;96545.89;;;-0.60;88.70
61357;BME280;47227;46.752;23.576;2023-01-29T01:48:25;96545.15;;;-0.53;88.82
61357;BME280;47227;46.752;23.576;2023-01-29T01:50:58;96549.17;;;-0.46;88.67
61357;BME280;47227;46.752;23.576;2023-01-29T01:53:35;96553.91;;;-0.40;88.79
61357;BME280;47227;46.752;23.576;2023-01-29T01:56:10;96556.05;;;-0.34;88.58
61357;BME280;47227;46.752;23.576;2023-01-29T01:58:46;96554.73;;;-0.28;88.51
61357;BME280;47227;46.752;23.576;2023-01-29T02:01:17;96554.56;;;-0.24;88.48
61357;BME280;47227;46.752;23.576;2023-01-29T02:03:53;96555.16;;;-0.18;88.38
61357;BME280;47227;46.752;23.576;2023-01-29T02:06:34;96559.29;;;-0.09;88.61
61357;BME280;47227;46.752;23.576;2023-01-29T02:09:19;96561.61;;;-0.01;88.45
61357;BME280;47227;46.752;23.576;2023-01-29T02:12:05;96561.14;;;0.03;88.04
61357;BME280;47227;46.752;23.576;2023-01-29T02:14:35;96559.23;;;0.02;87.91
61357;BME280;47227;46.752;23.576;2023-01-29T02:17:10;96556.14;;;0.03;87.60
61357;BME280;47227;46.752;23.576;2023-01-29T02:22:41;96554.02;;;0.01;87.12
61357;BME280;47227;46.752;23.576;2023-01-29T02:28:14;96562.79;;;0.01;87.40
61357;BME280;47227;46.752;23.576;2023-01-29T02:31:09;96563.23;;;-0.08;87.16
61357;BME280;47227;46.752;23.576;2023-01-29T02:34:03;96557.44;;;-0.11;86.92
61357;BME280;47227;46.752;23.576;2023-01-29T02:36:46;96558.48;;;-0.21;87.56
61357;BME280;47227;46.752;23.576;2023-01-29T02:39:36;96559.48;;;-0.23;87.31
61357;BME280;47227;46.752;23.576;2023-01-29T02:42:25;96561.27;;;-0.30;87.24
61357;BME280;47227;46.752;23.576;2023-01-29T02:45:03;96562.08;;;-0.31;87.48
61357;BME280;47227;46.752;23.576;2023-01-29T02:47:41;96567.91;;;-0.35;87.55
61357;BME280;47227;46.752;23.576;2023-01-29T02:50:18;96575.43;;;-0.47;88.68
61357;BME280;47227;46.752;23.576;2023-01-29T02:53:05;96580.73;;;-0.56;88.56
61357;BME280;47227;46.752;23.576;2023-01-29T02:55:46;96586.54;;;-0.66;89.15
61357;BME280;47227;46.752;23.576;2023-01-29T02:58:31;96590.04;;;-0.64;89.01
61357;BME280;47227;46.752;23.576;2023-01-29T03:01:06;96599.31;;;-0.71;90.08
61357;BME280;47227;46.752;23.576;2023-01-29T03:03:40;96602.44;;;-0.80;90.03
61357;BME280;47227;46.752;23.576;2023-01-29T03:06:18;96609.00;;;-0.89;90.39
61357;BME280;47227;46.752;23.576;2023-01-29T03:08:53;96609.99;;;-0.93;90.74
61357;BME280;47227;46.752;23.576;2023-01-29T03:11:23;96610.91;;;-0.89;90.31
61357;BME280;47227;46.752;23.576;2023-01-29T03:13:58;96612.44;;;-0.92;89.95
61357;BME280;47227;46.752;23.576;2023-01-29T03:16:32;96612.64;;;-0.92;89.94
61357;BME280;47227;46.752;23.576;2023-01-29T03:19:11;96615.59;;;-0.89;89.35
61357;BME280;47227;46.752;23.576;2023-01-29T03:21:45;96620.45;;;-1.03;88.72
61357;BME280;47227;46.752;23.576;2023-01-29T03:24:43;96620.48;;;-0.94;88.73
61357;BME280;47227;46.752;23.576;2023-01-29T03:27:38;96624.22;;;-1.04;89.06
61357;BME280;47227;46.752;23.576;2023-01-29T03:30:20;96622.98;;;-1.02;89.20
61357;BME280;47227;46.752;23.576;2023-01-29T03:33:10;96624.42;;;-1.08;89.54
61357;BME280;47227;46.752;23.576;2023-01-29T03:35:45;96624.37;;;-1.01;89.45
61357;BME280;47227;46.752;23.576;2023-01-29T03:38:16;96621.15;;;-0.98;89.25
61357;BME280;47227;46.752;23.576;2023-01-29T03:40:56;96626.00;;;-0.95;89.10
61357;BME280;47227;46.752;23.576;2023-01-29T03:43:35;96631.58;;;-1.02;89.13
61357;BME280;47227;46.752;23.576;2023-01-29T03:46:11;96632.63;;;-0.96;89.05
61357;BME280;47227;46.752;23.576;2023-01-29T03:48:57;96631.46;;;-0.93;88.44
61357;BME280;47227;46.752;23.576;2023-01-29T03:51:41;96633.66;;;-0.96;87.88
61357;BME280;47227;46.752;23.576;2023-01-29T03:54:20;96634.05;;;-0.89;87.95
61357;BME280;47227;46.752;23.576;2023-01-29T03:57:01;96636.70;;;-0.90;87.94
61357;BME280;47227;46.752;23.576;2023-01-29T03:59:39;96637.99;;;-0.95;87.93
61357;BME280;47227;46.752;23.576;2023-01-29T04:02:29;96635.49;;;-1.10;88.09
61357;BME280;47227;46.752;23.576;2023-01-29T04:05:05;96632.84;;;-1.14;88.60
61357;BME280;47227;46.752;23.576;2023-01-29T04:07:44;96634.20;;;-1.22;88.97
61357;BME280;47227;46.752;23.576;2023-01-29T04:10:18;96636.10;;;-1.22;88.89
61357;BME280;47227;46.752;23.576;2023-01-29T04:12:54;96636.13;;;-1.19;88.52
61357;BME280;47227;46.752;23.576;2023-01-29T04:15:26;96629.75;;;-1.28;89.45
61357;BME280;47227;46.752;23.576;2023-01-29T04:17:56;96636.40;;;-1.25;88.63
61357;BME280;47227;46.752;23.576;2023-01-29T04:20:34;96638.33;;;-1.24;88.08
61357;BME280;47227;46.752;23.576;2023-01-29T04:23:05;96639.33;;;-1.26;88.28
61357;BME280;47227;46.752;23.576;2023-01-29T04:25:42;96635.85;;;-1.23;88.03
61357;BME280;47227;46.752;23.576;2023-01-29T04:28:20;96632.05;;;-1.21;87.85
61357;BME280;47227;46.752;23.576;2023-01-29T04:30:53;96633.73;;;-1.21;87.81
61357;BME280;47227;46.752;23.576;2023-01-29T04:37:03;96628.79;;;-1.16;87.68
61357;BME280;47227;46.752;23.576;2023-01-29T04:39:45;96627.46;;;-1.12;87.59
61357;BME280;47227;46.752;23.576;2023-01-29T04:42:29;96626.45;;;-1.11;87.40
61357;BME280;47227;46.752;23.576;2023-01-29T04:45:07;96626.27;;;-1.09;87.24
61357;BME280;47227;46.752;23.576;2023-01-29T04:47:52;96629.17;;;-1.04;87.01
61357;BME280;47227;46.752;23.576;2023-01-29T04:53:44;96638.19;;;-1.10;86.93
61357;BME280;47227;46.752;23.576;2023-01-29T04:56:40;96642.09;;;-1.07;86.61
61357;BME280;47227;46.752;23.576;2023-01-29T04:59:32;96641.85;;;-1.00;86.61
61357;BME280;47227;46.752;23.576;2023-01-29T05:02:09;96641.09;;;-0.96;86.35
61357;BME280;47227;46.752;23.576;2023-01-29T05:04:49;96642.20;;;-0.96;86.35
61357;BME280;47227;46.752;23.576;2023-01-29T05:07:19;96640.45;;;-0.95;86.19
61357;BME280;47227;46.752;23.576;2023-01-29T05:09:49;96645.19;;;-1.01;85.95
61357;BME280;47227;46.752;23.576;2023-01-29T05:12:21;96655.73;;;-1.05;85.71
61357;BME280;47227;46.752;23.576;2023-01-29T05:14:52;96660.96;;;-1.16;85.74
61357;BME280;47227;46.752;23.576;2023-01-29T05:17:23;96662.45;;;-1.22;85.65
61357;BME280;47227;46.752;23.576;2023-01-29T05:19:54;96664.96;;;-1.26;85.65
61357;BME280;47227;46.752;23.576;2023-01-29T05:22:25;96669.95;;;-1.31;85.91
61357;BME280;47227;46.752;23.576;2023-01-29T05:25:18;96668.80;;;-1.38;85.75
61357;BME280;47227;46.752;23.576;2023-01-29T05:28:14;96675.17;;;-1.41;85.80
61357;BME280;47227;46.752;23.576;2023-01-29T05:30:48;96678.56;;;-1.42;85.88
61357;BME280;47227;46.752;23.576;2023-01-29T05:33:26;96678.61;;;-1.40;85.77
61357;BME280;47227;46.752;23.576;2023-01-29T05:36:33;96682.02;;;-1.36;85.89
61357;BME280;47227;46.752;23.576;2023-01-29T05:39:26;96682.17;;;-1.31;85.82
61357;BME280;47227;46.752;23.576;2023-01-29T05:41:56;96685.71;;;-1.26;85.67
61357;BME280;47227;46.752;23.576;2023-01-29T05:45:03;96687.00;;;-1.21;85.90
61357;BME280;47227;46.752;23.576;2023-01-29T05:47:56;96684.04;;;-1.21;85.45
61357;BME280;47227;46.752;23.576;2023-01-29T05:50:27;96687.10;;;-1.31;84.51
61357;BME280;47227;46.752;23.576;2023-01-29T05:53:14;96692.80;;;-1.26;84.90
61357;BME280;47227;46.752;23.576;2023-01-29T05:55:53;96694.41;;;-1.25;85.15
61357;BME280;47227;46.752;23.576;2023-01-29T05:58:45;96696.30;;;-1.27;84.98
61357;BME280;47227;46.752;23.576;2023-01-29T06:01:33;96697.67;;;-1.30;84.96
61357;BME280;47227;46.752;23.576;2023-01-29T06:04:24;96696.20;;;-1.34;84.81
61357;BME280;47227;46.752;23.576;2023-01-29T06:07:13;96700.48;;;-1.37;84.74
61357;BME280;47227;46.752;23.576;2023-01-29T06:10:03;96703.89;;;-1.43;84.31
61357;BME280;47227;46.752;23.576;2023-01-29T06:12:50;96709.13;;;-1.51;84.07
61357;BME280;47227;46.752;23.576;2023-01-29T06:15:38;96708.84;;;-1.56;83.94
61357;BME280;47227;46.752;23.576;2023-01-29T06:18:09;96710.73;;;-1.57;84.12
61357;BME280;47227;46.752;23.576;2023-01-29T06:39:02;96725.68;;;-1.52;83.23
61357;BME280;47227;46.752;23.576;2023-01-29T07:45:46;96731.67;;;-1.45;81.44
61357;BME280;47227;46.752;23.576;2023-01-29T10:40:14;96745.80;;;-0.14;72.91
61357;BME280;47227;46.752;23.576;2023-01-29T11:04:02;96738.70;;;-0.29;75.04
61357;BME280;47227;46.752;23.576;2023-01-29T12:14:04;96688.20;;;-0.59;73.80
61357;BME280;47227;46.752;23.576;2023-01-29T13:22:36;96693.58;;;-0.93;74.46
61357;BME280;47227;46.752;23.576;2023-01-29T13:25:18;96691.63;;;-1.18;74.63
61357;BME280;47227;46.752;23.576;2023-01-29T18:38:45;96753.09;;;-2.36;76.30
61357;BME280;47227;46.752;23.576;2023-01-29T19:31:41;96760.60;;;-2.46;75.50
61357;BME280;47227;46.752;23.576;2023-01-29T19:34:49;96762.81;;;-2.42;75.41
61357;BME280;47227;46.752;23.576;2023-01-29T20:22:00;96762.94;;;-2.74;74.69
61357;BME280;47227;46.752;23.576;2023-01-29T20:49:10;96760.36;;;-3.00;76.08
61357;BME280;47227;46.752;23.576;2023-01-29T20:52:00;96759.65;;;-2.97;75.50
61357;BME280;47227;46.752;23.576;2023-01-29T20:54:34;96763.66;;;-2.94;75.14
61357;BME280;47227;46.752;23.576;2023-01-29T20:57:14;96759.09;;;-2.98;74.96
61357;BME280;47227;46.752;23.576;2023-01-29T20:59:47;96759.73;;;-2.95;75.00
61357;BME280;47227;46.752;23.576;2023-01-29T21:02:22;96754.33;;;-3.00;74.03
61357;BME280;47227;46.752;23.576;2023-01-29T21:05:15;96751.64;;;-3.04;73.76
61357;BME280;47227;46.752;23.576;2023-01-29T21:07:51;96745.92;;;-3.11;74.02
61357;BME280;47227;46.752;23.576;2023-01-29T21:10:40;96742.42;;;-3.16;73.86
61357;BME280;47227;46.752;23.576;2023-01-29T21:13:37;96744.88;;;-3.24;72.48
61357;BME280;47227;46.752;23.576;2023-01-29T21:16:26;96743.52;;;-3.24;72.41
61357;BME280;47227;46.752;23.576;2023-01-29T21:19:03;96740.85;;;-3.25;72.89
61357;BME280;47227;46.752;23.576;2023-01-29T21:21:51;96746.68;;;-3.25;72.05
61357;BME280;47227;46.752;23.576;2023-01-29T21:24:36;96744.66;;;-3.38;71.69
61357;BME280;47227;46.752;23.576;2023-01-29T21:27:29;96739.30;;;-3.35;71.69
61357;BME280;47227;46.752;23.576;2023-01-29T21:30:39;96737.71;;;-3.38;71.68
61357;BME280;47227;46.752;23.576;2023-01-29T21:33:27;96741.58;;;-3.39;71.69
61357;BME280;47227;46.752;23.576;2023-01-29T21:36:18;96746.77;;;-3.42;71.39
61357;BME280;47227;46.752;23.576;2023-01-29T21:39:28;96751.16;;;-3.43;71.10
61357;BME280;47227;46.752;23.576;2023-01-29T21:42:22;96745.98;;;-3.39;71.17
61357;BME280;47227;46.752;23.576;2023-01-29T21:45:42;96744.21;;;-3.38;70.34
61357;BME280;47227;46.752;23.576;2023-01-29T21:48:35;96750.13;;;-3.43;69.34
61357;BME280;47227;46.752;23.576;2023-01-29T21:51:10;96749.52;;;-3.33;69.98
61357;BME280;47227;46.752;23.576;2023-01-29T21:53:42;96745.61;;;-3.28;70.21
61357;BME280;47227;46.752;23.576;2023-01-29T21:56:11;96739.04;;;-3.36;69.28
61357;BME280;47227;46.752;23.576;2023-01-29T21:58:47;96744.45;;;-3.27;69.73
61357;BME280;47227;46.752;23.576;2023-01-29T22:01:17;96739.42;;;-3.28;69.43
61357;BME280;47227;46.752;23.576;2023-01-29T22:04:05;96740.34;;;-3.25;69.82
61357;BME280;47227;46.752;23.576;2023-01-29T22:06:35;96741.39;;;-3.25;70.15
61357;BME280;47227;46.752;23.576;2023-01-29T22:09:09;96737.98;;;-3.25;69.83
61357;BME280;47227;46.752;23.576;2023-01-29T22:11:39;96740.91;;;-3.26;69.65
61357;BME280;47227;46.752;23.576;2023-01-29T22:14:08;96735.05;;;-3.29;69.06
61357;BME280;47227;46.752;23.576;2023-01-29T22:16:37;96729.30;;;-3.29;69.63
61357;BME280;47227;46.752;23.576;2023-01-29T22:19:05;96725.45;;;-3.30;69.41
61357;BME280;47227;46.752;23.576;2023-01-29T22:21:33;96722.67;;;-3.30;69.70
61357;BME280;47227;46.752;23.576;2023-01-29T22:24:03;96723.06;;;-3.32;69.45
61357;BME280;47227;46.752;23.576;2023-01-29T22:26:31;96718.72;;;-3.35;69.18
61357;BME280;47227;46.752;23.576;2023-01-29T22:29:06;96716.36;;;-3.39;69.29
61357;BME280;47227;46.752;23.576;2023-01-29T22:31:34;96720.44;;;-3.42;69.34
61357;BME280;47227;46.752;23.576;2023-01-29T22:34:12;96717.59;;;-3.44;69.16
61357;BME280;47227;46.752;23.576;2023-01-29T22:36:40;96718.77;;;-3.40;69.19
61357;BME280;47227;46.752;23.576;2023-01-29T22:39:09;96714.98;;;-3.42;69.29
61357;BME280;47227;46.752;23.576;2023-01-29T22:41:44;96714.59;;;-3.41;69.47
61357;BME280;47227;46.752;23.576;2023-01-29T22:44:15;96711.60;;;-3.40;69.21
61357;BME280;47227;46.752;23.576;2023-01-29T22:46:45;96708.88;;;-3.46;69.25
61357;BME280;47227;46.752;23.576;2023-01-29T22:49:44;96706.35;;;-3.43;69.60
61357;BME280;47227;46.752;23.576;2023-01-29T22:52:49;96707.15;;;-3.42;69.42
61357;BME280;47227;46.752;23.576;2023-01-29T22:55:22;96700.80;;;-3.42;69.80
61357;BME280;47227;46.752;23.576;2023-01-29T22:57:51;96705.20;;;-3.42;69.74
61357;BME280;47227;46.752;23.576;2023-01-29T23:00:20;96704.45;;;-3.44;69.75
61357;BME280;47227;46.752;23.576;2023-01-29T23:02:56;96707.46;;;-3.48;69.54
61357;BME280;47227;46.752;23.576;2023-01-29T23:05:31;96710.47;;;-3.45;70.00
61357;BME280;47227;46.752;23.576;2023-01-29T23:08:16;96709.80;;;-3.45;69.92
61357;BME280;47227;46.752;23.576;2023-01-29T23:10:46;96721.64;;;-3.42;69.85
61357;BME280;47227;46.752;23.576;2023-01-29T23:13:37;96723.10;;;-3.41;69.64
61357;BME280;47227;46.752;23.576;2023-01-29T23:16:07;96728.44;;;-3.41;69.83
61357;BME280;47227;46.752;23.576;2023-01-29T23:18:39;96726.68;;;-3.46;69.33
61357;BME280;47227;46.752;23.576;2023-01-29T23:21:09;96727.61;;;-3.42;69.72
61357;BME280;47227;46.752;23.576;2023-01-29T23:23:46;96727.44;;;-3.40;69.62
61357;BME280;47227;46.752;23.576;2023-01-29T23:26:15;96723.22;;;-3.39;69.83
61357;BME280;47227;46.752;23.576;2023-01-29T23:36:45;96722.50;;;-3.35;69.48
61357;BME280;47227;46.752;23.576;2023-01-29T23:45:02;96724.52;;;-3.31;69.22
